createdAt,value
2017-08-23T00:00:23.679Z,0.00
2017-08-23T00:02:18.143Z,0.00
2017-08-23T00:03:18.159Z,0.00
2017-08-23T00:05:12.767Z,0.00
2017-08-23T00:06:12.671Z,0.00
2017-08-23T00:08:07.127Z,0.00
2017-08-23T00:09:07.183Z,0.00
2017-08-23T00:11:01.639Z,0.00
2017-08-23T00:12:01.648Z,0.00
2017-08-23T00:13:55.107Z,0.00
2017-08-23T00:14:55.144Z,0.00
2017-08-23T00:16:49.633Z,0.00
2017-08-23T00:17:49.632Z,0.00
2017-08-23T00:19:44.096Z,0.00
2017-08-23T00:20:44.151Z,0.00
2017-08-23T00:22:38.600Z,0.00
2017-08-23T00:23:38.631Z,0.00
2017-08-23T00:25:34.144Z,0.00
2017-08-23T00:26:34.152Z,0.00
2017-08-23T00:28:28.592Z,0.00
2017-08-23T00:29:28.616Z,0.00
2017-08-23T00:31:23.098Z,0.00
2017-08-23T00:32:23.141Z,0.00
2017-08-23T00:34:17.624Z,0.00
2017-08-23T00:35:17.632Z,0.00
2017-08-23T00:37:12.073Z,0.00
2017-08-23T00:38:12.120Z,0.00
2017-08-23T00:40:06.593Z,0.00
2017-08-23T00:41:06.601Z,0.00
2017-08-23T00:43:00.072Z,0.00
2017-08-23T00:44:00.113Z,0.00
2017-08-23T00:45:54.633Z,0.00
2017-08-23T00:46:54.625Z,0.00
2017-08-23T00:48:49.065Z,0.00
2017-08-23T00:49:49.121Z,0.00
2017-08-23T00:51:43.625Z,0.00
2017-08-23T00:52:43.601Z,0.00
2017-08-23T00:54:38.073Z,0.00
2017-08-23T00:55:38.097Z,0.00
2017-08-23T00:57:32.596Z,0.00
2017-08-23T00:58:32.585Z,0.00
2017-08-23T01:00:27.074Z,0.00
2017-08-23T01:01:27.106Z,0.00
2017-08-23T01:03:21.601Z,0.00
2017-08-23T01:04:21.607Z,0.00
2017-08-23T01:06:16.050Z,0.00
2017-08-23T01:07:16.217Z,0.00
2017-08-23T01:09:10.562Z,0.00
2017-08-23T01:10:10.569Z,0.00
2017-08-23T01:12:05.034Z,0.00
2017-08-23T01:13:05.074Z,0.00
2017-08-23T01:14:59.578Z,0.00
2017-08-23T01:15:59.570Z,0.00
2017-08-23T01:17:54.027Z,0.00
2017-08-23T01:18:54.058Z,0.00
2017-08-23T01:20:48.538Z,0.00
2017-08-23T01:21:48.579Z,0.00
2017-08-23T01:23:43.026Z,0.00
2017-08-23T01:24:43.050Z,0.00
2017-08-23T01:26:37.570Z,0.00
2017-08-23T01:27:37.588Z,0.00
2017-08-23T01:29:32.060Z,0.00
2017-08-23T01:30:32.052Z,0.00
2017-08-23T01:32:26.492Z,0.00
2017-08-23T01:33:26.541Z,0.00
2017-08-23T01:35:21.035Z,0.00
2017-08-23T01:36:21.028Z,0.00
2017-08-23T01:38:15.492Z,0.00
2017-08-23T01:39:15.548Z,0.00
2017-08-23T01:41:10.132Z,0.00
2017-08-23T01:42:10.052Z,0.00
2017-08-23T01:44:04.500Z,0.00
2017-08-23T01:45:04.517Z,0.00
2017-08-23T01:46:58.972Z,0.00
2017-08-23T01:47:59.005Z,0.00
2017-08-23T01:49:53.494Z,0.00
2017-08-23T01:50:53.501Z,0.00
2017-08-23T01:52:47.957Z,0.00
2017-08-23T01:53:48.023Z,0.00
2017-08-23T01:55:42.621Z,0.00
2017-08-23T01:56:42.509Z,0.00
2017-08-23T01:58:36.981Z,0.00
2017-08-23T01:59:37.022Z,0.00
2017-08-23T02:01:31.477Z,0.00
2017-08-23T02:02:31.494Z,0.00
2017-08-23T02:04:25.966Z,0.00
2017-08-23T02:05:25.998Z,0.00
2017-08-23T02:07:20.495Z,0.00
2017-08-23T02:08:20.510Z,0.00
2017-08-23T02:10:14.941Z,0.00
2017-08-23T02:11:14.974Z,0.00
2017-08-23T02:13:09.454Z,0.00
2017-08-23T02:14:09.494Z,0.00
2017-08-23T02:16:03.926Z,0.00
2017-08-23T02:17:03.967Z,0.00
2017-08-23T02:18:58.462Z,0.00
2017-08-23T02:19:58.463Z,0.00
2017-08-23T02:21:52.910Z,0.00
2017-08-23T02:22:52.951Z,0.00
2017-08-23T02:24:47.438Z,0.00
2017-08-23T02:25:47.438Z,0.00
2017-08-23T02:27:41.910Z,0.00
2017-08-23T02:28:41.942Z,0.00
2017-08-23T02:30:36.406Z,0.00
2017-08-23T02:31:36.423Z,0.00
2017-08-23T02:33:30.911Z,0.00
2017-08-23T02:34:30.919Z,0.00
2017-08-23T02:36:25.383Z,0.00
2017-08-23T02:37:25.423Z,0.00
2017-08-23T02:39:19.919Z,0.00
2017-08-23T02:40:19.927Z,0.00
2017-08-23T02:42:14.399Z,0.00
2017-08-23T02:43:14.407Z,0.00
2017-08-23T02:45:08.864Z,0.00
2017-08-23T02:46:08.896Z,0.00
2017-08-23T02:48:03.735Z,0.00
2017-08-23T02:49:03.415Z,0.00
2017-08-23T02:50:57.871Z,0.00
2017-08-23T02:51:57.896Z,0.00
2017-08-23T02:53:52.335Z,0.00
2017-08-23T02:54:52.383Z,0.00
2017-08-23T02:56:46.839Z,0.00
2017-08-23T02:57:46.928Z,0.00
2017-08-23T02:59:53.704Z,0.00
2017-08-23T03:00:53.720Z,0.00
2017-08-23T03:02:48.226Z,0.00
2017-08-23T03:03:48.216Z,0.00
2017-08-23T03:05:42.679Z,0.00
2017-08-23T03:06:42.720Z,0.00
2017-08-23T03:08:37.184Z,0.00
2017-08-23T03:09:37.304Z,0.00
2017-08-23T03:11:31.680Z,0.00
2017-08-23T03:12:31.705Z,0.00
2017-08-23T03:14:26.195Z,0.00
2017-08-23T03:15:26.202Z,0.00
2017-08-23T03:17:20.672Z,0.00
2017-08-23T03:18:20.696Z,0.00
2017-08-23T03:20:15.160Z,0.00
2017-08-23T03:21:15.185Z,0.00
2017-08-23T03:23:10.641Z,0.00
2017-08-23T03:24:10.696Z,0.00
2017-08-23T03:26:05.161Z,0.00
2017-08-23T03:27:05.161Z,0.00
2017-08-23T03:28:59.642Z,0.00
2017-08-23T03:29:59.658Z,0.00
2017-08-23T03:31:54.146Z,0.00
2017-08-23T03:32:54.193Z,0.00
2017-08-23T03:34:48.665Z,0.00
2017-08-23T03:35:48.665Z,0.00
2017-08-23T03:37:43.114Z,0.00
2017-08-23T03:38:43.145Z,0.00
2017-08-23T03:40:37.634Z,0.00
2017-08-23T03:41:37.645Z,0.00
2017-08-23T03:43:32.122Z,0.00
2017-08-23T03:44:32.130Z,0.00
2017-08-23T03:46:26.627Z,0.00
2017-08-23T03:47:26.635Z,0.00
2017-08-23T03:49:21.106Z,0.00
2017-08-23T03:50:21.130Z,0.00
2017-08-23T03:52:15.578Z,0.00
2017-08-23T03:53:15.619Z,0.00
2017-08-23T03:55:10.099Z,0.00
2017-08-23T03:56:10.106Z,0.00
2017-08-23T03:58:04.562Z,0.00
2017-08-23T03:59:04.614Z,0.00
2017-08-23T04:00:59.090Z,0.00
2017-08-23T04:01:59.091Z,0.00
2017-08-23T04:03:52.587Z,0.00
2017-08-23T04:04:52.595Z,0.00
2017-08-23T04:06:47.075Z,0.00
2017-08-23T04:07:47.094Z,0.00
2017-08-23T04:09:41.596Z,0.00
2017-08-23T04:10:41.587Z,0.00
2017-08-23T04:12:36.066Z,0.00
2017-08-23T04:13:36.075Z,0.00
2017-08-23T04:15:30.532Z,0.00
2017-08-23T04:16:30.564Z,0.00
2017-08-23T04:18:25.044Z,0.00
2017-08-23T04:19:25.059Z,0.00
2017-08-23T04:21:19.547Z,0.00
2017-08-23T04:22:19.628Z,0.00
2017-08-23T04:24:14.091Z,0.00
2017-08-23T04:25:14.115Z,0.00
2017-08-23T04:27:21.492Z,0.00
2017-08-23T04:28:21.484Z,0.00
2017-08-23T04:30:15.965Z,0.00
2017-08-23T04:31:15.980Z,0.00
2017-08-23T04:33:10.651Z,5.63
2017-08-23T04:34:10.483Z,5.63
2017-08-23T04:36:04.971Z,5.63
2017-08-23T04:37:04.979Z,5.63
2017-08-23T04:38:59.460Z,5.63
2017-08-23T04:39:59.516Z,5.63
2017-08-23T04:41:53.965Z,5.63
2017-08-23T04:42:53.980Z,11.25
2017-08-23T04:44:48.387Z,11.25
2017-08-23T04:45:48.436Z,11.25
2017-08-23T04:47:42.940Z,11.25
2017-08-23T04:48:42.932Z,11.25
2017-08-23T04:50:37.388Z,16.88
2017-08-23T04:51:37.436Z,16.88
2017-08-23T04:53:31.884Z,16.88
2017-08-23T04:54:31.948Z,16.88
2017-08-23T04:56:26.412Z,22.50
2017-08-23T04:57:26.420Z,22.50
2017-08-23T04:59:20.916Z,22.50
2017-08-23T05:00:20.924Z,22.50
2017-08-23T05:02:15.388Z,28.13
2017-08-23T05:03:15.388Z,28.13
2017-08-23T05:05:11.397Z,28.13
2017-08-23T05:06:11.396Z,28.13
2017-08-23T05:08:05.829Z,28.13
2017-08-23T05:09:05.877Z,28.13
2017-08-23T05:11:00.341Z,28.13
2017-08-23T05:12:00.388Z,28.13
2017-08-23T05:13:56.917Z,28.13
2017-08-23T05:14:56.901Z,33.75
2017-08-23T05:16:51.269Z,33.75
2017-08-23T05:17:51.533Z,33.75
2017-08-23T05:19:47.653Z,33.75
2017-08-23T05:20:47.197Z,33.75
2017-08-23T05:22:41.982Z,33.75
2017-08-23T05:23:41.702Z,33.75
2017-08-23T05:25:36.117Z,33.75
2017-08-23T05:26:36.581Z,33.75
2017-08-23T05:28:30.989Z,33.75
2017-08-23T05:29:30.805Z,33.75
2017-08-23T05:31:25.565Z,33.75
2017-08-23T05:32:25.230Z,33.75
2017-08-23T05:34:20.037Z,33.75
2017-08-23T05:35:19.830Z,39.38
2017-08-23T05:37:14.453Z,39.38
2017-08-23T05:38:14.261Z,39.38
2017-08-23T05:40:08.677Z,39.38
2017-08-23T05:41:08.789Z,39.38
2017-08-23T05:43:03.158Z,39.38
2017-08-23T05:44:11.934Z,39.38
2017-08-23T05:45:57.695Z,45.00
2017-08-23T05:46:58.197Z,45.00
2017-08-23T05:48:53.653Z,45.00
2017-08-23T05:50:03.854Z,45.00
2017-08-23T05:51:48.110Z,45.00
2017-08-23T05:52:48.150Z,45.00
2017-08-23T05:54:43.369Z,45.00
2017-08-23T05:55:43.047Z,50.63
2017-08-23T05:57:37.134Z,50.63
2017-08-23T05:58:37.190Z,50.63
2017-08-23T06:00:31.631Z,50.63
2017-08-23T06:01:31.670Z,50.63
2017-08-23T06:03:27.519Z,50.63
2017-08-23T06:04:26.151Z,50.63
2017-08-23T06:06:20.599Z,50.63
2017-08-23T06:07:20.687Z,50.63
2017-08-23T06:09:16.999Z,50.63
2017-08-23T06:10:16.863Z,50.63
2017-08-23T06:12:12.800Z,50.63
2017-08-23T06:13:12.819Z,50.63
2017-08-23T06:15:07.581Z,56.25
2017-08-23T06:16:07.016Z,56.25
2017-08-23T06:18:05.069Z,56.25
2017-08-23T06:19:05.535Z,56.25
2017-08-23T06:21:10.032Z,61.88
2017-08-23T06:22:11.050Z,61.88
2017-08-23T06:24:06.064Z,61.88
2017-08-23T06:25:07.976Z,61.88
2017-08-23T06:27:00.536Z,67.50
2017-08-23T06:28:01.519Z,67.50
2017-08-23T06:29:55.128Z,67.50
2017-08-23T06:30:55.072Z,67.50
2017-08-23T06:33:02.264Z,67.50
2017-08-23T06:34:09.696Z,67.50
2017-08-23T06:35:57.080Z,67.50
2017-08-23T06:36:57.497Z,67.50
2017-08-23T06:38:51.687Z,73.13
2017-08-23T06:39:51.543Z,73.13
2017-08-23T06:41:46.032Z,73.13
2017-08-23T06:42:46.047Z,73.13
2017-08-23T06:44:42.560Z,78.75
2017-08-23T06:45:42.287Z,78.75
2017-08-23T06:47:36.152Z,78.75
2017-08-23T06:48:36.191Z,78.75
2017-08-23T06:50:29.854Z,84.38
2017-08-23T06:51:29.751Z,84.38
2017-08-23T06:53:25.351Z,84.38
2017-08-23T06:54:24.151Z,84.38
2017-08-23T06:56:19.784Z,84.38
2017-08-23T06:57:20.583Z,84.38
2017-08-23T06:59:15.042Z,84.38
2017-08-23T07:00:14.264Z,90.00
2017-08-23T07:02:10.992Z,90.00
2017-08-23T07:03:11.464Z,90.00
2017-08-23T07:05:05.152Z,90.00
2017-08-23T07:06:04.696Z,90.00
2017-08-23T07:08:00.490Z,95.63
2017-08-23T07:08:59.176Z,95.63
2017-08-23T07:11:01.360Z,95.63
2017-08-23T07:11:52.721Z,95.63
2017-08-23T07:13:47.161Z,95.63
2017-08-23T07:14:47.841Z,101.25
2017-08-23T07:16:52.241Z,101.25
2017-08-23T07:17:52.217Z,101.25
2017-08-23T07:19:45.705Z,101.25
2017-08-23T07:20:45.721Z,106.88
2017-08-23T07:22:40.273Z,106.88
2017-08-23T07:23:40.289Z,106.88
2017-08-23T07:25:45.193Z,106.88
2017-08-23T07:26:45.226Z,112.50
2017-08-23T07:28:41.585Z,112.50
2017-08-23T07:29:41.546Z,112.50
2017-08-23T07:31:35.977Z,112.50
2017-08-23T07:32:35.980Z,112.50
2017-08-23T07:34:30.521Z,118.13
2017-08-23T07:35:30.500Z,118.13
2017-08-23T07:37:37.289Z,118.13
2017-08-23T07:38:36.537Z,118.13
2017-08-23T07:40:32.881Z,118.13
2017-08-23T07:41:32.697Z,118.13
2017-08-23T07:43:27.114Z,123.75
2017-08-23T07:44:27.146Z,123.75
2017-08-23T07:46:34.559Z,129.38
2017-08-23T07:47:33.194Z,129.38
2017-08-23T07:49:39.234Z,135.00
2017-08-23T07:50:39.266Z,135.00
2017-08-23T07:52:35.266Z,140.63
2017-08-23T07:53:35.746Z,140.63
2017-08-23T07:55:29.706Z,140.63
2017-08-23T07:56:29.811Z,146.25
2017-08-23T07:58:36.227Z,146.25
2017-08-23T07:59:35.813Z,146.25
2017-08-23T08:01:31.346Z,146.25
2017-08-23T08:02:31.235Z,151.88
2017-08-23T08:04:27.131Z,151.88
2017-08-23T08:05:27.139Z,151.88
2017-08-23T08:07:21.611Z,151.88
2017-08-23T08:08:21.629Z,151.88
2017-08-23T08:10:16.259Z,151.88
2017-08-23T08:11:16.619Z,151.88
2017-08-23T08:13:10.699Z,157.50
2017-08-23T08:14:10.619Z,157.50
2017-08-23T08:16:05.155Z,163.13
2017-08-23T08:17:05.173Z,163.13
2017-08-23T08:18:59.228Z,163.13
2017-08-23T08:19:58.819Z,168.75
2017-08-23T08:21:53.412Z,174.38
2017-08-23T08:22:53.547Z,174.38
2017-08-23T08:24:48.124Z,180.00
2017-08-23T08:25:55.803Z,185.63
2017-08-23T08:27:42.476Z,191.25
2017-08-23T08:28:42.534Z,191.25
2017-08-23T08:30:38.676Z,191.25
2017-08-23T08:31:38.684Z,196.88
2017-08-23T08:33:34.532Z,202.50
2017-08-23T08:34:34.404Z,202.50
2017-08-23T08:36:30.892Z,208.13
2017-08-23T08:37:30.948Z,208.13
2017-08-23T08:39:23.996Z,208.13
2017-08-23T08:40:24.508Z,208.13
2017-08-23T08:42:18.187Z,208.13
2017-08-23T08:43:18.107Z,213.75
2017-08-23T08:45:12.580Z,213.75
2017-08-23T08:46:13.115Z,208.13
2017-08-23T08:48:07.213Z,208.13
2017-08-23T08:49:06.924Z,208.13
2017-08-23T08:51:04.099Z,213.75
2017-08-23T08:52:04.003Z,219.38
2017-08-23T08:53:57.620Z,219.38
2017-08-23T08:54:57.516Z,219.38
2017-08-23T08:56:51.572Z,225.00
2017-08-23T08:57:51.364Z,219.38
2017-08-23T08:59:47.117Z,225.00
2017-08-23T09:00:47.156Z,230.63
2017-08-23T09:02:41.596Z,230.63
2017-08-23T09:03:49.324Z,225.00
2017-08-23T09:05:35.092Z,208.13
2017-08-23T09:06:35.172Z,196.88
2017-08-23T09:08:30.388Z,208.13
2017-08-23T09:09:29.701Z,202.50
2017-08-23T09:11:24.212Z,196.88
2017-08-23T09:12:24.358Z,202.50
2017-08-23T09:14:17.871Z,208.13
2017-08-23T09:15:26.429Z,213.75
2017-08-23T09:17:32.693Z,213.75
2017-08-23T09:18:23.679Z,225.00
2017-08-23T09:20:19.901Z,225.00
2017-08-23T09:21:19.717Z,236.25
2017-08-23T09:23:13.620Z,241.88
2017-08-23T09:24:13.317Z,236.25
2017-08-23T09:26:21.125Z,247.50
2017-08-23T09:27:21.189Z,241.88
2017-08-23T09:29:16.013Z,247.50
2017-08-23T09:30:15.681Z,247.50
2017-08-23T09:32:11.269Z,258.75
2017-08-23T09:33:11.269Z,258.75
2017-08-23T09:35:17.718Z,264.38
2017-08-23T09:36:17.735Z,270.00
2017-08-23T09:38:22.496Z,270.00
2017-08-23T09:39:12.360Z,270.00
2017-08-23T09:41:18.408Z,275.63
2017-08-23T09:42:27.264Z,281.25
2017-08-23T09:44:12.592Z,281.25
2017-08-23T09:45:11.944Z,286.88
2017-08-23T09:47:05.784Z,286.88
2017-08-23T09:48:05.496Z,292.50
2017-08-23T09:50:11.497Z,298.13
2017-08-23T09:51:11.480Z,298.13
2017-08-23T09:53:16.240Z,303.75
2017-08-23T09:54:16.416Z,309.38
2017-08-23T09:57:52.408Z,320.63
2017-08-23T09:59:02.961Z,320.63
2017-08-23T10:02:28.513Z,331.88
2017-08-23T10:05:24.577Z,348.75
2017-08-23T10:06:24.598Z,354.38
2017-08-23T10:08:21.049Z,371.25
2017-08-23T10:09:20.641Z,376.88
2017-08-23T10:11:25.377Z,399.38
2017-08-23T10:12:15.089Z,405.00
2017-08-23T10:14:17.683Z,438.75
2017-08-23T10:15:09.521Z,466.88
2017-08-23T10:17:16.994Z,624.38
2017-08-23T10:18:05.793Z,939.38
2017-08-23T10:20:00.201Z,1845.00
2017-08-23T10:21:00.289Z,1985.63
2017-08-23T10:23:07.249Z,2160.00
2017-08-23T10:23:56.450Z,2210.63
2017-08-23T10:26:02.746Z,2435.63
2017-08-23T10:26:52.377Z,2610.00
2017-08-23T10:28:47.434Z,3223.13
2017-08-23T10:29:46.887Z,3133.13
2017-08-23T10:31:42.058Z,2919.38
2017-08-23T10:32:42.058Z,2683.13
2017-08-23T10:34:36.602Z,2463.75
2017-08-23T10:35:36.522Z,2351.25
2017-08-23T10:37:53.674Z,2103.75
2017-08-23T10:38:32.027Z,1957.50
2017-08-23T10:40:25.363Z,1828.13
2017-08-23T10:41:25.170Z,1788.75
2017-08-23T10:43:21.211Z,1665.00
2017-08-23T10:44:19.771Z,1575.00
2017-08-23T10:46:14.723Z,1496.25
2017-08-23T10:47:14.754Z,1490.63
2017-08-23T10:49:10.899Z,1423.13
2017-08-23T10:50:10.874Z,1406.25
2017-08-23T10:52:05.667Z,1395.00
2017-08-23T10:53:05.659Z,1428.75
2017-08-23T10:55:00.339Z,1445.63
2017-08-23T10:56:00.148Z,1479.38
2017-08-23T10:57:53.627Z,1597.50
2017-08-23T10:58:54.204Z,1665.00
2017-08-23T11:00:48.147Z,1665.00
2017-08-23T11:01:48.431Z,1620.00
2017-08-23T11:03:42.699Z,1586.25
2017-08-23T11:04:42.747Z,1580.63
2017-08-23T11:06:39.739Z,1631.25
2017-08-23T11:07:38.332Z,1636.88
2017-08-23T11:09:31.347Z,1670.63
2017-08-23T11:10:31.381Z,1659.38
2017-08-23T11:12:25.972Z,1676.25
2017-08-23T11:13:26.140Z,1710.00
2017-08-23T11:15:20.532Z,1715.63
2017-08-23T11:16:20.588Z,1738.13
2017-08-23T11:18:16.572Z,1828.13
2017-08-23T11:19:16.604Z,1867.50
2017-08-23T11:21:11.132Z,1935.00
2017-08-23T11:22:11.124Z,1935.00
2017-08-23T11:24:05.705Z,1923.75
2017-08-23T11:25:05.692Z,1929.38
2017-08-23T11:27:00.324Z,1918.13
2017-08-23T11:28:00.321Z,1923.75
2017-08-23T11:29:54.732Z,1963.13
2017-08-23T11:30:54.757Z,1968.75
2017-08-23T11:32:50.789Z,1974.38
2017-08-23T11:33:50.916Z,1985.63
2017-08-23T11:35:45.365Z,2013.75
2017-08-23T11:36:45.397Z,1980.00
2017-08-23T11:38:40.005Z,2019.38
2017-08-23T11:39:39.973Z,2025.00
2017-08-23T11:41:34.444Z,2036.25
2017-08-23T11:42:34.494Z,2053.13
2017-08-23T11:44:29.166Z,1974.38
2017-08-23T11:45:29.157Z,1327.50
2017-08-23T11:47:25.509Z,1783.13
2017-08-23T11:48:25.549Z,2019.38
2017-08-23T11:50:20.463Z,1822.50
2017-08-23T11:51:20.461Z,1856.25
2017-08-23T11:53:15.125Z,1383.75
2017-08-23T11:54:15.045Z,1558.13
2017-08-23T11:56:09.589Z,1631.25
2017-08-23T11:57:09.581Z,1760.63
2017-08-23T11:59:05.637Z,1108.13
2017-08-23T12:00:05.701Z,1080.00
2017-08-23T12:01:59.133Z,1012.50
2017-08-23T12:02:59.102Z,961.88
2017-08-23T12:04:53.549Z,1681.88
2017-08-23T12:05:53.654Z,1631.25
2017-08-23T12:07:49.694Z,1614.38
2017-08-23T12:08:49.654Z,1586.25
2017-08-23T12:10:44.214Z,1580.63
2017-08-23T12:11:44.230Z,1575.00
2017-08-23T12:13:38.822Z,1591.88
2017-08-23T12:14:38.830Z,1580.63
2017-08-23T12:16:33.326Z,1344.38
2017-08-23T12:17:33.355Z,1141.88
2017-08-23T12:19:29.678Z,1288.13
2017-08-23T12:20:29.687Z,1282.50
2017-08-23T12:22:24.390Z,961.88
2017-08-23T12:23:24.382Z,1535.63
2017-08-23T12:25:21.478Z,1603.13
2017-08-23T12:26:20.591Z,2964.38
2017-08-23T12:28:15.113Z,4781.25
2017-08-23T12:29:15.360Z,3695.63
2017-08-23T12:31:19.879Z,3082.50
2017-08-23T12:32:11.183Z,2874.38
2017-08-23T12:34:04.294Z,2880.00
2017-08-23T12:35:04.415Z,2908.13
2017-08-23T12:36:58.839Z,3003.75
2017-08-23T12:37:59.055Z,2902.50
2017-08-23T12:39:52.646Z,2925.00
2017-08-23T12:40:52.607Z,2908.13
2017-08-23T12:42:49.527Z,3155.63
2017-08-23T12:43:49.583Z,3363.75
2017-08-23T12:45:55.263Z,3335.63
2017-08-23T12:46:55.384Z,3318.75
2017-08-23T12:48:50.207Z,3296.25
2017-08-23T12:49:50.352Z,2902.50
2017-08-23T12:51:44.760Z,2677.50
2017-08-23T12:52:44.776Z,2891.25
2017-08-23T12:54:39.408Z,2784.38
2017-08-23T12:55:39.319Z,2565.00
2017-08-23T12:57:34.360Z,2660.63
2017-08-23T12:58:33.896Z,2351.25
2017-08-23T13:00:28.416Z,2851.88
2017-08-23T13:01:28.424Z,2835.00
2017-08-23T13:03:22.944Z,2728.13
2017-08-23T13:04:22.985Z,2621.25
2017-08-23T13:06:18.081Z,2497.50
2017-08-23T13:07:18.167Z,2570.63
2017-08-23T13:09:14.279Z,1912.50
2017-08-23T13:10:14.295Z,2070.00
2017-08-23T13:12:08.759Z,2036.25
2017-08-23T13:13:08.824Z,2300.63
2017-08-23T13:15:03.312Z,2694.38
2017-08-23T13:16:03.344Z,2317.50
2017-08-23T13:17:57.879Z,2497.50
2017-08-23T13:18:57.944Z,2643.75
2017-08-23T13:20:52.544Z,2283.75
2017-08-23T13:21:52.463Z,2306.25
2017-08-23T13:23:47.999Z,2660.63
2017-08-23T13:24:47.993Z,2638.13
2017-08-23T13:26:44.120Z,2626.88
2017-08-23T13:27:44.096Z,2216.25
2017-08-23T13:29:38.601Z,2548.13
2017-08-23T13:30:38.626Z,2041.88
2017-08-23T13:32:35.104Z,2154.38
2017-08-23T13:33:35.681Z,2368.13
2017-08-23T13:35:29.656Z,2531.25
2017-08-23T13:36:29.712Z,2356.88
2017-08-23T13:38:24.784Z,2643.75
2017-08-23T13:39:24.497Z,2244.38
2017-08-23T13:41:19.425Z,1198.13
2017-08-23T13:42:19.481Z,1085.63
2017-08-23T13:44:13.981Z,900.00
2017-08-23T13:45:14.025Z,810.00
2017-08-23T13:47:08.521Z,753.75
2017-08-23T13:48:08.546Z,725.63
2017-08-23T13:50:04.608Z,714.38
2017-08-23T13:51:04.657Z,697.50
2017-08-23T13:52:58.697Z,658.13
2017-08-23T13:53:58.665Z,630.00
2017-08-23T13:55:52.185Z,579.38
2017-08-23T13:56:52.265Z,573.75
2017-08-23T13:58:48.458Z,562.50
2017-08-23T13:59:48.442Z,562.50
2017-08-23T14:01:42.862Z,573.75
2017-08-23T14:02:42.905Z,585.00
2017-08-23T14:04:36.522Z,978.75
2017-08-23T14:05:36.578Z,1395.00
2017-08-23T14:07:31.113Z,1445.63
2017-08-23T14:08:31.042Z,1389.38
2017-08-23T14:10:27.050Z,1603.13
2017-08-23T14:11:27.154Z,1861.88
2017-08-23T14:13:20.651Z,1822.50
2017-08-23T14:14:20.674Z,1558.13
2017-08-23T14:16:15.202Z,1665.00
2017-08-23T14:17:15.370Z,1833.75
2017-08-23T14:19:09.451Z,1738.13
2017-08-23T14:20:09.874Z,1721.25
2017-08-23T14:22:03.426Z,1625.63
2017-08-23T14:23:04.331Z,1687.50
2017-08-23T14:24:57.834Z,1743.75
2017-08-23T14:25:58.954Z,1575.00
2017-08-23T14:27:51.483Z,781.88
2017-08-23T14:28:51.451Z,562.50
2017-08-23T14:30:45.971Z,495.00
2017-08-23T14:31:46.043Z,472.50
2017-08-23T14:33:39.586Z,438.75
2017-08-23T14:34:40.515Z,416.25
2017-08-23T14:36:34.051Z,416.25
2017-08-23T14:37:34.131Z,416.25
2017-08-23T14:39:28.627Z,410.63
2017-08-23T14:40:28.843Z,405.00
2017-08-23T14:42:26.651Z,393.75
2017-08-23T14:43:24.716Z,393.75
2017-08-23T14:45:19.450Z,371.25
2017-08-23T14:46:19.267Z,365.63
2017-08-23T14:48:13.739Z,354.38
2017-08-23T14:49:13.827Z,354.38
2017-08-23T14:51:09.804Z,348.75
2017-08-23T14:52:09.811Z,354.38
2017-08-23T14:54:04.804Z,360.00
2017-08-23T14:55:04.972Z,354.38
2017-08-23T14:56:58.396Z,360.00
2017-08-23T14:57:58.436Z,365.63
2017-08-23T14:59:51.436Z,376.88
2017-08-23T15:00:51.501Z,371.25
2017-08-23T15:02:44.477Z,365.63
2017-08-23T15:03:44.508Z,360.00
2017-08-23T15:05:37.554Z,360.00
2017-08-23T15:06:38.507Z,360.00
2017-08-23T15:08:30.570Z,354.38
2017-08-23T15:09:30.594Z,348.75
2017-08-23T15:11:23.618Z,326.25
2017-08-23T15:12:23.642Z,326.25
2017-08-23T15:14:16.634Z,331.88
2017-08-23T15:15:16.723Z,331.88
2017-08-23T15:17:09.675Z,348.75
2017-08-23T15:18:09.729Z,331.88
2017-08-23T15:20:04.243Z,309.38
2017-08-23T15:21:04.211Z,298.13
2017-08-23T15:22:57.827Z,281.25
2017-08-23T15:23:57.875Z,275.63
2017-08-23T15:25:50.922Z,281.25
2017-08-23T15:26:50.907Z,275.63
2017-08-23T15:28:43.931Z,253.13
2017-08-23T15:29:43.941Z,241.88
2017-08-23T15:31:38.405Z,241.88
2017-08-23T15:32:38.460Z,241.88
2017-08-23T15:34:33.731Z,236.25
2017-08-23T15:35:33.036Z,236.25
2017-08-23T15:37:30.035Z,236.25
2017-08-23T15:38:30.052Z,236.25
2017-08-23T15:40:24.740Z,225.00
2017-08-23T15:41:24.596Z,213.75
2017-08-23T15:43:18.116Z,202.50
2017-08-23T15:44:18.131Z,196.88
2017-08-23T15:46:12.684Z,202.50
2017-08-23T15:47:12.679Z,202.50
2017-08-23T15:49:12.212Z,196.88
2017-08-23T15:50:07.180Z,196.88
2017-08-23T15:52:01.796Z,202.50
2017-08-23T15:53:01.813Z,208.13
2017-08-23T15:54:55.772Z,196.88
2017-08-23T15:55:55.805Z,196.88
2017-08-23T15:57:50.292Z,185.63
2017-08-23T15:58:50.305Z,174.38
2017-08-23T16:00:44.852Z,163.13
2017-08-23T16:01:44.852Z,157.50
2017-08-23T16:03:39.333Z,151.88
2017-08-23T16:04:39.357Z,146.25
2017-08-23T16:06:33.014Z,140.63
2017-08-23T16:07:32.973Z,140.63
2017-08-23T16:09:30.419Z,135.00
2017-08-23T16:10:30.009Z,135.00
2017-08-23T16:12:26.003Z,129.38
2017-08-23T16:13:24.506Z,129.38
2017-08-23T16:15:18.072Z,123.75
2017-08-23T16:16:18.096Z,123.75
2017-08-23T16:18:13.720Z,123.75
2017-08-23T16:19:13.672Z,129.38
2017-08-23T16:21:08.184Z,135.00
2017-08-23T16:22:08.208Z,140.63
2017-08-23T16:24:02.732Z,146.25
2017-08-23T16:25:02.816Z,146.25
2017-08-23T16:26:57.240Z,146.25
2017-08-23T16:27:57.304Z,146.25
2017-08-23T16:29:50.842Z,146.25
2017-08-23T16:30:50.817Z,146.25
2017-08-23T16:32:43.857Z,140.63
2017-08-23T16:33:43.889Z,140.63
2017-08-23T16:35:37.497Z,140.63
2017-08-23T16:36:37.441Z,140.63
2017-08-23T16:38:31.905Z,140.63
2017-08-23T16:39:31.953Z,140.63
2017-08-23T16:41:26.842Z,140.63
2017-08-23T16:42:25.513Z,135.00
2017-08-23T16:44:20.018Z,129.38
2017-08-23T16:45:20.058Z,123.75
2017-08-23T16:47:14.601Z,118.13
2017-08-23T16:48:14.578Z,118.13
2017-08-23T16:50:09.210Z,118.13
2017-08-23T16:51:09.146Z,118.13
2017-08-23T16:53:03.642Z,123.75
2017-08-23T16:54:03.706Z,129.38
2017-08-23T16:56:05.970Z,135.00
2017-08-23T16:56:58.261Z,135.00
2017-08-23T16:58:53.274Z,135.00
2017-08-23T16:59:53.453Z,129.38
2017-08-23T17:01:48.036Z,118.13
2017-08-23T17:02:47.434Z,112.50
2017-08-23T17:04:42.290Z,106.88
2017-08-23T17:05:42.068Z,106.88
2017-08-23T17:07:39.411Z,106.88
2017-08-23T17:08:38.923Z,106.88
2017-08-23T17:10:32.723Z,101.25
2017-08-23T17:11:32.491Z,101.25
2017-08-23T17:13:28.614Z,101.25
2017-08-23T17:14:28.542Z,95.63
2017-08-23T17:16:23.046Z,90.00
2017-08-23T17:17:23.094Z,84.38
2017-08-23T17:19:16.534Z,84.38
2017-08-23T17:20:17.590Z,84.38
2017-08-23T17:22:11.118Z,84.38
2017-08-23T17:23:11.094Z,84.38
2017-08-23T17:25:05.614Z,84.38
2017-08-23T17:26:05.598Z,78.75
2017-08-23T17:28:01.567Z,78.75
2017-08-23T17:29:01.606Z,78.75
2017-08-23T17:30:56.174Z,84.38
2017-08-23T17:31:56.141Z,90.00
2017-08-23T17:33:50.614Z,90.00
2017-08-23T17:34:50.678Z,84.38
2017-08-23T17:36:45.182Z,73.13
2017-08-23T17:37:45.175Z,67.50
2017-08-23T17:39:41.158Z,61.88
2017-08-23T17:40:41.191Z,56.25
2017-08-23T17:42:35.703Z,50.63
2017-08-23T17:43:35.764Z,50.63
2017-08-23T17:45:32.807Z,50.63
2017-08-23T17:46:32.776Z,45.00
2017-08-23T17:48:25.743Z,45.00
2017-08-23T17:49:25.727Z,45.00
2017-08-23T17:51:20.430Z,39.38
2017-08-23T17:52:20.343Z,39.38
2017-08-23T17:54:14.720Z,33.75
2017-08-23T17:55:14.698Z,33.75
2017-08-23T17:57:08.167Z,28.13
2017-08-23T17:58:08.199Z,28.13
2017-08-23T18:00:02.665Z,28.13
2017-08-23T18:01:02.687Z,22.50
2017-08-23T18:02:56.184Z,22.50
2017-08-23T18:03:56.208Z,22.50
2017-08-23T18:05:50.703Z,16.88
2017-08-23T18:06:50.713Z,16.88
2017-08-23T18:08:45.344Z,16.88
2017-08-23T18:09:45.424Z,16.88
2017-08-23T18:11:39.407Z,11.25
2017-08-23T18:12:39.456Z,11.25
2017-08-23T18:14:35.448Z,5.63
2017-08-23T18:15:35.472Z,5.63
2017-08-23T18:17:29.992Z,5.63
2017-08-23T18:18:30.001Z,5.63
2017-08-23T18:20:26.372Z,5.63
2017-08-23T18:21:25.721Z,5.63
2017-08-23T18:23:19.376Z,5.63
2017-08-23T18:24:19.304Z,5.63
2017-08-23T18:26:13.664Z,5.63
2017-08-23T18:27:13.585Z,5.63
2017-08-23T18:29:09.729Z,5.63
2017-08-23T18:30:07.209Z,5.63
2017-08-23T18:32:03.841Z,0.00
2017-08-23T18:33:01.153Z,0.00
2017-08-23T18:34:55.760Z,0.00
2017-08-23T18:35:55.665Z,0.00